Time;durP1;ratioP1;P1;durP2;ratioP2;P2;SDS_P1;SDS_P2;PMS_P1;PMS_P2;Temp;Humidity;BMP_temperature;BMP_pressure;BME280_temperature;BME280_humidity;BME280_pressure;Samples;Min_cycle;Max_cycle;Signal;HPM_P1;HPM_P2
2021/05/09 00:01:53;;;;;;;5.23;4.10;;;11.50;91.20;;;;;;6149523;23;21072;-84
2021/05/09 00:04:20;;;;;;;5.00;4.40;;;11.40;91.50;;;;;;6138573;23;20432;-84
2021/05/09 00:06:47;;;;;;;4.20;3.27;;;11.30;92.00;;;;;;6145417;23;20457;-84
2021/05/09 00:09:14;;;;;;;4.73;3.60;;;11.20;92.10;;;;;;6141996;23;21222;-84
2021/05/09 00:11:41;;;;;;;6.57;3.97;;;11.20;92.50;;;;;;6141883;23;20437;-82
2021/05/09 00:14:09;;;;;;;3.93;3.67;;;11.10;92.60;;;;;;6149103;23;20448;-84
2021/05/09 00:16:37;;;;;;;5.37;3.80;;;11.10;93.20;;;;;;6145559;23;20449;-84
2021/05/09 00:19:05;;;;;;;3.50;3.20;;;11.00;93.20;;;;;;6148583;23;20441;-86
2021/05/09 00:21:32;;;;;;;4.50;3.83;;;11.00;92.40;;;;;;6149649;23;20518;-84
2021/05/09 00:24:00;;;;;;;7.93;3.90;;;11.00;92.40;;;;;;6139723;23;20472;-84
2021/05/09 00:26:27;;;;;;;4.23;3.83;;;11.00;92.50;;;;;;6144300;23;20528;-83
2021/05/09 00:28:54;;;;;;;4.30;3.90;;;11.00;92.50;;;;;;6153852;23;20477;-84
2021/05/09 00:31:22;;;;;;;7.17;4.20;;;11.00;92.60;;;;;;6158101;23;20513;-85
2021/05/09 00:33:49;;;;;;;4.37;3.93;;;11.00;92.70;;;;;;6165367;23;20441;-82
2021/05/09 00:36:16;;;;;;;4.00;3.67;;;11.00;92.80;;;;;;6161200;23;20445;-85
2021/05/09 00:38:43;;;;;;;4.10;3.73;;;11.00;92.90;;;;;;6150444;23;20472;-85
2021/05/09 00:41:10;;;;;;;3.83;3.43;;;11.00;92.90;;;;;;6152073;23;20468;-86
2021/05/09 00:43:37;;;;;;;3.70;3.40;;;11.00;92.80;;;;;;6156779;23;20954;-83
2021/05/09 00:46:04;;;;;;;4.97;3.60;;;11.00;93.00;;;;;;6137936;23;20443;-83
2021/05/09 00:48:32;;;;;;;4.40;4.00;;;11.00;93.20;;;;;;6145070;23;20530;-84
2021/05/09 00:50:59;;;;;;;4.40;4.00;;;10.90;93.20;;;;;;6143176;23;20444;-83
2021/05/09 00:53:29;;;;;;;4.27;3.83;;;10.90;93.50;;;;;;6123435;23;20448;-83
2021/05/09 00:55:58;;;;;;;4.03;3.73;;;10.90;93.50;;;;;;6161940;23;20440;-84
2021/05/09 00:58:27;;;;;;;11.40;3.77;;;10.90;93.60;;;;;;6132206;23;20452;-84
2021/05/09 01:00:54;;;;;;;4.97;4.57;;;10.90;93.50;;;;;;6141575;23;20441;-84
2021/05/09 01:03:27;;;;;;;4.80;3.93;;;10.90;93.60;;;;;;6148483;23;20456;-83
2021/05/09 01:05:56;;;;;;;4.60;4.20;;;10.90;93.70;;;;;;6149648;23;20442;-83
2021/05/09 01:08:23;;;;;;;4.83;4.30;;;10.90;93.90;;;;;;6144553;23;20447;-83
2021/05/09 01:10:50;;;;;;;5.90;4.47;;;10.90;94.30;;;;;;6142050;23;20539;-83
2021/05/09 01:13:17;;;;;;;4.33;3.93;;;10.90;94.00;;;;;;6141455;23;20517;-82
2021/05/09 01:15:44;;;;;;;5.70;4.07;;;10.80;94.30;;;;;;6133537;23;20439;-83
2021/05/09 01:18:12;;;;;;;4.97;4.47;;;10.80;94.30;;;;;;6146666;23;20515;-83
2021/05/09 01:20:40;;;;;;;3.77;3.43;;;10.80;94.30;;;;;;6141135;23;20459;-83
2021/05/09 01:23:07;;;;;;;4.50;4.10;;;10.80;94.40;;;;;;6141690;23;20432;-83
2021/05/09 01:25:36;;;;;;;7.00;4.23;;;10.80;94.10;;;;;;6135739;23;20527;-84
2021/05/09 01:28:04;;;;;;;4.60;4.20;;;10.80;93.90;;;;;;6151417;23;20440;-83
2021/05/09 01:30:33;;;;;;;4.40;4.00;;;10.90;93.90;;;;;;6145661;23;20446;-84
2021/05/09 01:33:00;;;;;;;4.20;3.80;;;10.90;93.80;;;;;;6138077;23;20438;-84
2021/05/09 01:35:27;;;;;;;4.53;4.10;;;10.90;93.80;;;;;;6139117;23;20778;-87
2021/05/09 01:37:55;;;;;;;4.10;3.70;;;10.90;93.80;;;;;;6144048;23;20938;-84
2021/05/09 01:40:23;;;;;;;4.70;4.20;;;10.90;93.80;;;;;;6138108;23;20536;-82
2021/05/09 01:42:50;;;;;;;5.90;3.83;;;10.90;94.00;;;;;;6135177;23;20963;-83
2021/05/09 01:45:17;;;;;;;4.53;4.13;;;10.80;94.00;;;;;;6139986;23;20433;-82
2021/05/09 01:47:44;;;;;;;4.13;3.73;;;10.80;94.40;;;;;;6148205;23;20441;-83
2021/05/09 01:50:13;;;;;;;4.37;3.63;;;10.80;94.40;;;;;;6146878;23;20775;-84
2021/05/09 01:52:41;;;;;;;4.20;3.80;;;10.70;94.80;;;;;;6142723;23;20433;-83
2021/05/09 01:55:12;;;;;;;6.30;3.97;;;10.70;95.10;;;;;;6138691;23;20455;-83
2021/05/09 01:57:39;;;;;;;5.27;3.60;;;10.60;95.60;;;;;;6132251;23;20448;-83
2021/05/09 02:00:10;;;;;;;4.00;3.70;;;10.60;95.60;;;;;;6136368;23;21214;-83
2021/05/09 02:02:37;;;;;;;4.60;3.80;;;10.60;95.80;;;;;;6158274;23;20397;-83
2021/05/09 02:05:04;;;;;;;4.90;3.83;;;10.60;95.70;;;;;;6155383;23;20413;-84
2021/05/09 02:07:32;;;;;;;5.83;3.80;;;10.60;95.80;;;;;;6156530;23;20427;-84
2021/05/09 02:09:59;;;;;;;3.97;3.57;;;10.60;96.10;;;;;;6156813;23;20410;-84
2021/05/09 02:12:27;;;;;;;7.93;4.93;;;10.50;96.40;;;;;;6160667;23;20418;-85
2021/05/09 02:14:55;;;;;;;6.60;5.10;;;10.50;96.20;;;;;;6148741;23;20475;-84
2021/05/09 02:17:23;;;;;;;5.53;4.87;;;10.40;97.30;;;;;;6163976;23;20516;-84
2021/05/09 02:19:50;;;;;;;5.77;4.50;;;10.30;97.20;;;;;;6144840;23;20443;-85
2021/05/09 02:22:17;;;;;;;6.03;4.87;;;10.20;97.80;;;;;;6150147;23;20516;-84
2021/05/09 02:24:45;;;;;;;5.63;4.10;;;10.20;97.70;;;;;;6147116;23;20441;-83
2021/05/09 02:27:12;;;;;;;5.13;4.30;;;10.10;98.40;;;;;;6150891;23;20433;-82
2021/05/09 02:29:40;;;;;;;4.60;4.20;;;10.10;98.30;;;;;;6155906;23;20445;-82
2021/05/09 02:32:10;;;;;;;6.80;4.47;;;10.00;98.60;;;;;;6154381;23;20508;-83
2021/05/09 02:34:37;;;;;;;5.60;5.00;;;10.00;98.60;;;;;;6154998;23;20437;-83
2021/05/09 02:37:05;;;;;;;7.33;4.50;;;10.00;99.30;;;;;;6154141;23;20483;-82
2021/05/09 02:39:32;;;;;;;7.63;5.03;;;10.00;99.20;;;;;;6145323;23;20469;-83
2021/05/09 02:41:59;;;;;;;4.77;4.27;;;10.00;99.70;;;;;;6150794;23;20441;-83
2021/05/09 02:44:29;;;;;;;4.20;3.90;;;10.00;99.40;;;;;;6152322;23;20444;-84
2021/05/09 02:46:57;;;;;;;4.93;4.40;;;9.90;99.80;;;;;;6142956;23;20437;-85
2021/05/09 02:49:24;;;;;;;4.47;4.07;;;9.90;99.80;;;;;;6153416;23;20488;-84
2021/05/09 02:51:51;;;;;;;4.43;4.03;;;9.90;99.80;;;;;;6151002;23;20471;-86
2021/05/09 02:54:18;;;;;;;4.87;4.27;;;9.90;99.80;;;;;;6141751;23;20731;-84
2021/05/09 02:56:45;;;;;;;6.17;5.10;;;9.90;99.80;;;;;;6147834;23;20452;-86
2021/05/09 02:59:12;;;;;;;10.37;4.90;;;9.90;99.80;;;;;;6125728;23;20983;-83
2021/05/09 03:01:39;;;;;;;5.70;4.57;;;9.90;99.80;;;;;;6145903;23;20445;-83
2021/05/09 03:04:07;;;;;;;4.67;4.27;;;9.90;99.80;;;;;;6141453;23;20445;-82
2021/05/09 03:06:34;;;;;;;5.40;4.90;;;9.90;99.80;;;;;;6119173;23;20444;-81
2021/05/09 03:09:02;;;;;;;7.00;4.50;;;9.90;99.80;;;;;;6137118;23;20443;-82
2021/05/09 03:11:29;;;;;;;5.17;4.67;;;9.90;99.80;;;;;;6138929;23;20474;-84
2021/05/09 03:13:56;;;;;;;8.00;5.47;;;9.80;99.80;;;;;;6129309;23;20438;-83
2021/05/09 03:16:24;;;;;;;5.07;4.57;;;9.80;99.80;;;;;;6144277;23;20449;-84
2021/05/09 03:18:51;;;;;;;9.27;4.23;;;9.80;99.80;;;;;;6150969;23;20447;-84
2021/05/09 03:21:21;;;;;;;5.00;4.43;;;9.80;99.80;;;;;;6151964;23;21259;-84
2021/05/09 03:23:48;;;;;;;5.80;4.70;;;9.80;99.80;;;;;;6151939;23;20444;-83
2021/05/09 03:26:15;;;;;;;4.73;4.07;;;9.80;99.80;;;;;;6151451;23;20437;-85
2021/05/09 03:28:42;;;;;;;5.20;4.70;;;9.80;99.80;;;;;;6145224;23;20461;-86
2021/05/09 03:31:09;;;;;;;6.77;4.20;;;9.80;99.80;;;;;;6139803;23;20508;-85
2021/05/09 03:33:37;;;;;;;4.87;4.37;;;9.80;99.80;;;;;;6152588;23;20438;-84
2021/05/09 03:36:05;;;;;;;5.40;4.33;;;9.80;99.80;;;;;;6150923;23;20468;-82
2021/05/09 03:38:33;;;;;;;6.17;4.60;;;9.80;99.80;;;;;;6134967;23;20446;-82
2021/05/09 03:41:00;;;;;;;5.10;4.57;;;9.80;99.80;;;;;;6150643;23;20441;-83
2021/05/09 03:43:27;;;;;;;5.67;4.47;;;9.80;99.80;;;;;;6139209;23;20536;-83
2021/05/09 03:45:54;;;;;;;5.80;4.40;;;9.90;99.80;;;;;;6127706;23;20464;-83
2021/05/09 03:48:21;;;;;;;5.13;4.40;;;9.90;99.80;;;;;;6143845;23;20439;-84
2021/05/09 03:50:48;;;;;;;5.73;4.30;;;9.90;99.80;;;;;;6154273;23;20465;-83
2021/05/09 03:53:15;;;;;;;4.40;4.00;;;9.90;99.80;;;;;;6149925;23;20532;-83
2021/05/09 03:55:43;;;;;;;5.07;4.40;;;10.00;99.80;;;;;;6147470;23;20438;-84
2021/05/09 03:58:10;;;;;;;6.07;4.33;;;9.90;99.80;;;;;;6151022;23;20453;-82
2021/05/09 04:00:37;;;;;;;6.17;4.47;;;10.00;99.80;;;;;;6143819;23;20451;-83
2021/05/09 04:03:19;;;;;;;5.13;4.60;;;10.00;99.80;;;;;;6161875;23;20512;-84
2021/05/09 04:05:47;;;;;;;5.20;4.70;;;10.10;99.80;;;;;;6153554;23;20532;-85
2021/05/09 04:08:14;;;;;;;5.27;4.67;;;10.10;99.80;;;;;;6142124;23;20449;-84
2021/05/09 04:10:41;;;;;;;4.43;4.03;;;10.10;99.80;;;;;;6130755;23;20464;-85
2021/05/09 04:13:09;;;;;;;5.03;4.53;;;10.10;99.80;;;;;;6130237;23;20470;-83
2021/05/09 04:15:36;;;;;;;7.60;4.40;;;10.20;99.80;;;;;;6138286;23;20434;-84
2021/05/09 04:18:03;;;;;;;5.43;4.07;;;10.20;99.80;;;;;;6149012;23;20511;-83
2021/05/09 04:20:30;;;;;;;5.53;4.67;;;10.30;99.80;;;;;;6134215;23;20445;-84
2021/05/09 04:23:07;;;;;;;5.63;4.43;;;10.30;99.80;;;;;;6138347;23;20445;-84
2021/05/09 04:25:34;;;;;;;4.13;3.80;;;10.40;99.80;;;;;;6122606;23;20449;-84
2021/05/09 04:28:01;;;;;;;4.97;4.37;;;10.40;99.80;;;;;;6133760;23;20445;-84
2021/05/09 04:30:29;;;;;;;5.90;4.83;;;10.50;99.80;;;;;;6133735;23;20957;-84
2021/05/09 04:33:00;;;;;;;4.53;4.13;;;10.50;99.80;;;;;;6156122;23;20441;-84
2021/05/09 04:35:27;;;;;;;5.43;4.97;;;10.50;99.80;;;;;;6152403;23;20535;-84
2021/05/09 04:37:55;;;;;;;5.00;4.47;;;10.50;99.80;;;;;;6145094;23;20436;-83
2021/05/09 04:40:22;;;;;;;5.10;4.60;;;10.50;99.80;;;;;;6126978;23;20455;-83
2021/05/09 04:42:49;;;;;;;5.77;4.93;;;10.50;99.80;;;;;;6135047;23;20458;-83
2021/05/09 04:45:17;;;;;;;5.27;4.77;;;10.40;99.80;;;;;;6136823;23;20435;-84
2021/05/09 04:47:46;;;;;;;6.40;5.37;;;10.30;99.80;;;;;;6151012;23;20446;-83
2021/05/09 04:50:14;;;;;;;7.40;6.07;;;10.30;99.80;;;;;;6143528;23;21258;-83
2021/05/09 04:52:41;;;;;;;10.23;7.47;;;10.20;99.80;;;;;;6139406;23;20515;-83
2021/05/09 04:55:09;;;;;;;13.60;9.87;;;10.20;99.80;;;;;;6141755;23;20887;-84
2021/05/09 04:57:36;;;;;;;8.60;7.23;;;10.30;99.80;;;;;;6138803;23;20442;-84
2021/05/09 05:00:05;;;;;;;7.73;5.23;;;10.30;99.80;;;;;;6142250;23;21308;-84
2021/05/09 05:02:34;;;;;;;6.97;5.57;;;10.40;99.80;;;;;;6159641;23;20440;-87
2021/05/09 05:05:04;;;;;;;13.43;9.83;;;10.50;99.80;;;;;;6147709;23;20809;-84
2021/05/09 05:07:31;;;;;;;6.53;5.90;;;10.60;99.80;;;;;;6149550;23;20938;-84
2021/05/09 05:09:58;;;;;;;40.97;19.13;;;10.70;99.80;;;;;;6130424;23;20449;-85
2021/05/09 05:12:25;;;;;;;12.73;8.67;;;10.70;99.80;;;;;;6142255;23;20798;-84
2021/05/09 05:14:52;;;;;;;18.77;10.10;;;10.80;99.80;;;;;;6135054;23;20432;-84
2021/05/09 05:17:19;;;;;;;10.13;7.00;;;10.90;99.80;;;;;;6142006;23;20524;-84
2021/05/09 05:19:47;;;;;;;17.83;10.17;;;11.10;99.80;;;;;;6148440;23;20448;-83
2021/05/09 05:22:14;;;;;;;14.40;8.83;;;11.30;99.80;;;;;;6145659;23;20786;-83
2021/05/09 05:24:41;;;;;;;8.83;6.40;;;11.40;99.80;;;;;;6120943;23;21125;-84
2021/05/09 05:27:08;;;;;;;15.93;10.10;;;11.60;99.80;;;;;;6155969;23;20845;-83
2021/05/09 05:29:35;;;;;;;7.67;5.00;;;11.70;99.80;;;;;;6131547;23;20468;-84
2021/05/09 05:32:02;;;;;;;5.63;5.10;;;11.90;99.80;;;;;;6145453;23;20436;-81
2021/05/09 05:34:29;;;;;;;15.73;10.70;;;12.00;99.20;;;;;;6144641;23;20453;-83
2021/05/09 05:36:56;;;;;;;12.13;8.43;;;12.10;99.30;;;;;;6146367;23;20463;-81
2021/05/09 05:39:24;;;;;;;20.03;11.47;;;12.30;98.90;;;;;;6148594;23;20444;-82
2021/05/09 05:41:51;;;;;;;22.50;14.50;;;12.30;98.20;;;;;;6147818;23;20512;-82
2021/05/09 05:44:18;;;;;;;6.83;6.13;;;12.50;98.00;;;;;;6148380;23;20445;-82
2021/05/09 05:46:50;;;;;;;11.83;7.67;;;12.50;98.00;;;;;;6150025;23;20997;-83
2021/05/09 05:49:17;;;;;;;8.70;6.13;;;12.60;97.60;;;;;;6148083;23;20446;-83
2021/05/09 05:51:44;;;;;;;7.73;6.47;;;12.60;97.90;;;;;;6143447;23;20497;-85
2021/05/09 05:54:11;;;;;;;5.53;5.00;;;12.70;97.60;;;;;;6141616;23;20461;-82
2021/05/09 05:56:39;;;;;;;6.30;5.07;;;12.70;97.60;;;;;;6138121;23;20445;-84
2021/05/09 05:59:08;;;;;;;5.40;4.90;;;12.70;98.20;;;;;;6124244;23;20437;-83
2021/05/09 06:01:35;;;;;;;5.37;4.87;;;12.80;98.80;;;;;;6143301;23;20433;-87
2021/05/09 06:04:03;;;;;;;7.33;5.00;;;12.90;98.80;;;;;;6116340;23;20418;-86
2021/05/09 06:06:33;;;;;;;6.17;5.57;;;13.00;97.70;;;;;;6114653;23;20520;-88
2021/05/09 06:09:04;;;;;;;4.83;4.37;;;13.20;97.50;;;;;;6140302;23;20451;-88
2021/05/09 06:11:35;;;;;;;4.30;3.97;;;13.50;96.20;;;;;;6133776;23;20443;-87
2021/05/09 06:14:07;;;;;;;4.43;3.80;;;13.70;95.40;;;;;;6133747;23;20498;-88
2021/05/09 06:16:50;;;;;;;4.10;3.53;;;13.70;95.30;;;;;;6162334;23;20428;-88
2021/05/09 06:19:17;;;;;;;3.93;3.63;;;13.80;94.50;;;;;;6148125;23;20441;-89
2021/05/09 06:21:45;;;;;;;3.40;3.10;;;14.00;94.80;;;;;;6153426;23;20442;-88
2021/05/09 06:24:14;;;;;;;4.60;3.77;;;14.00;94.80;;;;;;6142325;23;20518;-88
2021/05/09 06:26:41;;;;;;;8.23;4.10;;;14.20;94.60;;;;;;6113013;23;21489;-87
2021/05/09 06:29:09;;;;;;;4.60;4.20;;;14.30;93.90;;;;;;6140553;23;20858;-88
2021/05/09 06:31:39;;;;;;;3.90;3.60;;;14.30;93.90;;;;;;6140222;23;20521;-87
2021/05/09 06:34:06;;;;;;;4.20;3.90;;;14.50;93.30;;;;;;6135560;23;20441;-86
2021/05/09 06:36:34;;;;;;;4.00;3.70;;;14.50;93.30;;;;;;6116733;23;21001;-81
2021/05/09 06:39:03;;;;;;;4.43;4.03;;;14.60;93.40;;;;;;6118558;23;20561;-87
2021/05/09 06:41:31;;;;;;;4.60;4.10;;;14.70;93.70;;;;;;6148304;23;21007;-87
2021/05/09 06:44:00;;;;;;;5.20;4.03;;;14.80;93.90;;;;;;6148766;23;20464;-88
2021/05/09 06:46:28;;;;;;;4.00;3.60;;;15.00;93.10;;;;;;6141647;23;20469;-89
2021/05/09 06:48:56;;;;;;;4.20;3.80;;;15.00;93.10;;;;;;6146898;23;20445;-87
2021/05/09 06:51:23;;;;;;;5.20;4.80;;;15.10;93.60;;;;;;6151821;23;20433;-87
2021/05/09 06:53:50;;;;;;;6.27;4.73;;;15.20;93.00;;;;;;6149530;23;20526;-88
2021/05/09 06:56:17;;;;;;;4.77;4.37;;;15.40;92.90;;;;;;6132651;23;20444;-88
2021/05/09 06:58:44;;;;;;;4.50;4.07;;;15.50;92.90;;;;;;6128083;23;20918;-87
2021/05/09 07:01:12;;;;;;;5.70;4.70;;;15.60;92.70;;;;;;6144407;23;20509;-88
2021/05/09 07:03:41;;;;;;;3.80;3.50;;;15.70;92.50;;;;;;6142225;23;20438;-88
2021/05/09 07:06:08;;;;;;;4.67;4.23;;;15.80;92.40;;;;;;6139415;23;20445;-88
2021/05/09 07:08:35;;;;;;;4.23;3.83;;;15.90;91.90;;;;;;6130224;23;20478;-87
2021/05/09 07:11:02;;;;;;;3.50;3.20;;;16.00;91.90;;;;;;6115157;23;20453;-88
2021/05/09 07:13:29;;;;;;;3.70;3.40;;;16.10;91.20;;;;;;6143493;23;21034;-87
2021/05/09 07:16:00;;;;;;;4.70;3.90;;;16.10;91.40;;;;;;6143293;23;20444;-88
2021/05/09 07:18:29;;;;;;;3.90;3.60;;;16.30;92.80;;;;;;6151899;23;20452;-88
2021/05/09 07:21:02;;;;;;;3.37;3.07;;;16.40;92.20;;;;;;6144391;23;20439;-88
2021/05/09 07:23:31;;;;;;;3.80;3.50;;;16.50;93.20;;;;;;6122248;23;20458;-89
2021/05/09 07:25:58;;;;;;;3.80;3.40;;;16.70;90.10;;;;;;6068524;23;20433;-89
2021/05/09 07:28:33;;;;;;;3.53;3.20;;;16.80;89.90;;;;;;6140610;23;20445;-88
2021/05/09 07:31:52;;;;;;;3.23;2.93;;;16.90;89.70;;;;;;6126548;23;20974;-88
2021/05/09 07:34:20;;;;;;;3.40;3.10;;;17.00;90.50;;;;;;6145336;23;20441;-89
2021/05/09 07:37:41;;;;;;;3.63;3.33;;;17.20;89.70;;;;;;6120454;23;20965;-89
2021/05/09 07:43:29;;;;;;;3.37;3.17;;;17.40;88.80;;;;;;6142510;23;20812;-89
2021/05/09 07:46:04;;;;;;;3.63;3.33;;;17.50;89.60;;;;;;6170258;23;20527;-89
2021/05/09 07:48:31;;;;;;;3.43;3.20;;;17.60;87.80;;;;;;6093568;23;20440;-89
2021/05/09 07:51:00;;;;;;;3.17;2.97;;;17.80;88.30;;;;;;6141542;23;20474;-89
2021/05/09 07:53:30;;;;;;;3.07;2.87;;;17.90;87.50;;;;;;6162251;23;20515;-89
2021/05/09 07:55:57;;;;;;;4.13;3.00;;;18.20;89.20;;;;;;6107548;23;20492;-89
2021/05/09 07:59:07;;;;;;;4.53;2.60;;;18.20;89.20;;;;;;6147595;23;20442;-89
2021/05/09 08:01:34;;;;;;;3.50;2.90;;;18.40;88.10;;;;;;6121183;23;20511;-88
2021/05/09 08:04:02;;;;;;;4.80;3.47;;;18.60;86.00;;;;;;6150619;23;20425;-88
2021/05/09 08:06:29;;;;;;;3.17;2.97;;;18.70;86.40;;;;;;6147340;23;20447;-89
2021/05/09 08:08:57;;;;;;;3.10;2.90;;;18.70;86.40;;;;;;6124109;23;20448;-89
2021/05/09 08:11:24;;;;;;;3.53;3.10;;;18.80;86.90;;;;;;6095725;23;20988;-88
2021/05/09 08:13:54;;;;;;;5.40;3.07;;;19.20;88.00;;;;;;6137916;23;20433;-90
2021/05/09 08:16:22;;;;;;;2.90;2.70;;;19.40;85.40;;;;;;6143946;23;20436;-88
2021/05/09 08:25:50;;;;;;;3.00;2.80;;;19.70;84.60;;;;;;6050685;23;20456;-89
2021/05/09 08:28:18;;;;;;;2.87;2.67;;;20.10;83.50;;;;;;6123411;23;20528;-88
2021/05/09 08:30:52;;;;;;;2.20;2.00;;;20.10;83.50;;;;;;6085187;23;20521;-89
